Hovedside
METAR-TAF:

METAR-TAF

Lufthavner :

Riyadh, Saudi-Arabia

breddegrad: 24-43N, lengdegrad: 046-44E, høyde over havet: 635 m

Gjeldene værobservasjon

Denne rapporten ble laget for 13 timer og 4 minutter siden, klokken 21:00 UTC
Vind 5 kt fra Øst-sørøst
Temperatur 21°C
Luftfuktighet 49%
Trykk 1018 hPa
Sikt 10 km eller mer
Få skyer i en høyde av 4000 ft

METAR: OERY 092100Z 11005KT 9999 FEW040 21/10 Q1018

Tid: 13:04 (10:04 UTC)

Varsel

Denne rapporten ble laget for 11 timer og 4 minutter siden, klokken 23:00 UTC
Varsel gyldig fra 10. klokken 00 UTC til 11. klokken 06 UTC
Vind 5 kt fra Sør-sørøst med vindkast opp mot 15 kt
Sikt 10 km eller mer
Få skyer i en høyde av 4000 ft
Spredte skyer i en høyde av 8000 ft
Sannsynlighet 30% :
Midlertidig
fra 10. klokken 12 UTC til 10. klokken 16 UTC
Sikt: 7000 m
Få skyer i en høyde av 3500 ft, Bygeskyer.
Spredte skyer i en høyde av 4000 ft

TAF: OERY 092300Z 1000/1106 15005G15KT 9999 FEW040 SCT080 PROB30 TEMPO 1012/1016 7000 FEW035CB SCT040

Værobservasjoner og værvarsel for over 4000 flyplasser (METAR- og TAF-rapporter).

Tilgjengelige stasjoner er representert av de røde og gule prikkene på kartet.

Hold musepekeren over prikken for å se navnet på stasjonen.

Klikk så for å se værobservasjoner og -varsler.

For å forandre kartet kan du klikke på den grønne knappen med svart kryss for å zoome inn, på den grønne knappen med strek for å zoome ut, eller på de grønne pilene for å se tilstøtende kart.


METAR-TAF: